sensor_id;sensor_type;location;lat;lon;timestamp;temperature;humidity
285;DHT22;127;48.770;9.212;2023-02-22T00:02:06;7.10;99.90
285;DHT22;127;48.770;9.212;2023-02-22T00:04:49;7.10;99.90
285;DHT22;127;48.770;9.212;2023-02-22T00:07:18;7.10;99.90
285;DHT22;127;48.770;9.212;2023-02-22T00:09:48;7.00;99.90
285;DHT22;127;48.770;9.212;2023-02-22T00:12:16;7.00;99.90
285;DHT22;127;48.770;9.212;2023-02-22T00:14:48;7.00;99.90
285;DHT22;127;48.770;9.212;2023-02-22T00:17:16;7.00;99.90
285;DHT22;127;48.770;9.212;2023-02-22T00:19:47;7.00;99.90
285;DHT22;127;48.770;9.212;2023-02-22T00:22:16;6.90;99.90
285;DHT22;127;48.770;9.212;2023-02-22T00:24:46;6.90;99.90
285;DHT22;127;48.770;9.212;2023-02-22T00:27:15;6.90;99.90
285;DHT22;127;48.770;9.212;2023-02-22T00:29:48;6.90;99.90
285;DHT22;127;48.770;9.212;2023-02-22T00:32:16;6.90;99.90
285;DHT22;127;48.770;9.212;2023-02-22T00:34:45;7.00;99.90
285;DHT22;127;48.770;9.212;2023-02-22T00:37:14;7.00;99.90
285;DHT22;127;48.770;9.212;2023-02-22T00:39:45;7.10;99.90
285;DHT22;127;48.770;9.212;2023-02-22T00:42:14;7.10;99.90
285;DHT22;127;48.770;9.212;2023-02-22T00:44:43;7.10;99.90
285;DHT22;127;48.770;9.212;2023-02-22T00:47:14;7.00;99.90
285;DHT22;127;48.770;9.212;2023-02-22T00:49:43;7.00;99.90
285;DHT22;127;48.770;9.212;2023-02-22T00:52:11;6.90;99.90
285;DHT22;127;48.770;9.212;2023-02-22T00:54:40;6.90;99.90
285;DHT22;127;48.770;9.212;2023-02-22T00:57:09;6.80;99.90
285;DHT22;127;48.770;9.212;2023-02-22T00:59:38;6.70;99.90
285;DHT22;127;48.770;9.212;2023-02-22T01:02:06;6.60;99.90
285;DHT22;127;48.770;9.212;2023-02-22T01:04:39;6.60;99.90
285;DHT22;127;48.770;9.212;2023-02-22T01:07:08;6.60;99.90
285;DHT22;127;48.770;9.212;2023-02-22T01:09:36;6.50;99.90
285;DHT22;127;48.770;9.212;2023-02-22T01:12:06;6.40;99.90
285;DHT22;127;48.770;9.212;2023-02-22T01:14:35;6.40;99.90
285;DHT22;127;48.770;9.212;2023-02-22T01:17:04;6.40;99.90
285;DHT22;127;48.770;9.212;2023-02-22T01:19:33;6.30;99.90
285;DHT22;127;48.770;9.212;2023-02-22T01:22:04;6.30;99.90
285;DHT22;127;48.770;9.212;2023-02-22T01:24:33;6.20;99.90
285;DHT22;127;48.770;9.212;2023-02-22T01:27:01;6.20;99.90
285;DHT22;127;48.770;9.212;2023-02-22T01:29:30;6.10;99.90
285;DHT22;127;48.770;9.212;2023-02-22T01:31:59;6.00;99.90
285;DHT22;127;48.770;9.212;2023-02-22T01:34:28;6.00;99.90
285;DHT22;127;48.770;9.212;2023-02-22T01:36:57;5.90;99.90
285;DHT22;127;48.770;9.212;2023-02-22T01:39:28;5.80;99.90
285;DHT22;127;48.770;9.212;2023-02-22T01:41:57;5.70;99.90
285;DHT22;127;48.770;9.212;2023-02-22T01:44:28;5.70;99.90
285;DHT22;127;48.770;9.212;2023-02-22T01:46:58;5.60;99.90
285;DHT22;127;48.770;9.212;2023-02-22T01:49:30;5.60;99.90
285;DHT22;127;48.770;9.212;2023-02-22T01:52:02;5.50;99.90
285;DHT22;127;48.770;9.212;2023-02-22T01:54:39;5.50;99.90
285;DHT22;127;48.770;9.212;2023-02-22T01:57:14;5.50;99.90
285;DHT22;127;48.770;9.212;2023-02-22T01:59:46;5.50;99.90
285;DHT22;127;48.770;9.212;2023-02-22T02:02:17;5.40;99.90
285;DHT22;127;48.770;9.212;2023-02-22T02:04:46;5.40;99.90
285;DHT22;127;48.770;9.212;2023-02-22T02:07:17;5.40;99.90
285;DHT22;127;48.770;9.212;2023-02-22T02:09:55;5.40;99.90
285;DHT22;127;48.770;9.212;2023-02-22T02:12:26;5.40;99.90
285;DHT22;127;48.770;9.212;2023-02-22T02:15:16;5.40;99.90
285;DHT22;127;48.770;9.212;2023-02-22T02:17:46;5.40;99.90
285;DHT22;127;48.770;9.212;2023-02-22T02:20:21;5.40;99.90
285;DHT22;127;48.770;9.212;2023-02-22T02:22:55;5.40;99.90
285;DHT22;127;48.770;9.212;2023-02-22T02:34:44;5.10;99.90
285;DHT22;127;48.770;9.212;2023-02-22T02:37:24;5.10;99.90
285;DHT22;127;48.770;9.212;2023-02-22T02:40:00;5.10;99.90
285;DHT22;127;48.770;9.212;2023-02-22T02:42:38;5.00;99.90
285;DHT22;127;48.770;9.212;2023-02-22T02:45:12;4.90;99.90
285;DHT22;127;48.770;9.212;2023-02-22T02:47:45;4.90;99.90
285;DHT22;127;48.770;9.212;2023-02-22T02:50:22;4.90;99.90
285;DHT22;127;48.770;9.212;2023-02-22T02:52:54;4.80;99.90
285;DHT22;127;48.770;9.212;2023-02-22T02:55:24;4.80;99.90
285;DHT22;127;48.770;9.212;2023-02-22T02:57:52;4.70;99.90
285;DHT22;127;48.770;9.212;2023-02-22T03:00:25;4.80;99.90
285;DHT22;127;48.770;9.212;2023-02-22T03:03:06;4.80;99.90
285;DHT22;127;48.770;9.212;2023-02-22T03:06:04;4.80;99.90
285;DHT22;127;48.770;9.212;2023-02-22T03:08:40;4.70;99.90
285;DHT22;127;48.770;9.212;2023-02-22T03:11:14;4.70;99.90
285;DHT22;127;48.770;9.212;2023-02-22T03:13:51;4.70;99.90
285;DHT22;127;48.770;9.212;2023-02-22T03:16:31;4.60;99.90
285;DHT22;127;48.770;9.212;2023-02-22T03:19:05;4.60;99.90
285;DHT22;127;48.770;9.212;2023-02-22T03:21:43;4.50;99.90
285;DHT22;127;48.770;9.212;2023-02-22T03:24:16;4.50;99.90
285;DHT22;127;48.770;9.212;2023-02-22T03:26:50;4.40;99.90
285;DHT22;127;48.770;9.212;2023-02-22T03:29:22;4.40;99.90
285;DHT22;127;48.770;9.212;2023-02-22T03:31:55;4.30;99.90
285;DHT22;127;48.770;9.212;2023-02-22T03:34:30;4.30;99.90
285;DHT22;127;48.770;9.212;2023-02-22T03:37:09;4.40;99.90
285;DHT22;127;48.770;9.212;2023-02-22T03:39:41;4.30;99.90
285;DHT22;127;48.770;9.212;2023-02-22T03:42:13;4.30;99.90
285;DHT22;127;48.770;9.212;2023-02-22T03:44:44;4.20;99.90
285;DHT22;127;48.770;9.212;2023-02-22T03:47:29;4.20;99.90
285;DHT22;127;48.770;9.212;2023-02-22T03:50:02;4.10;99.90
285;DHT22;127;48.770;9.212;2023-02-22T03:52:35;4.10;99.90
285;DHT22;127;48.770;9.212;2023-02-22T03:55:06;4.00;99.90
285;DHT22;127;48.770;9.212;2023-02-22T03:57:38;4.10;99.90
285;DHT22;127;48.770;9.212;2023-02-22T04:00:10;4.10;99.90
285;DHT22;127;48.770;9.212;2023-02-22T04:02:39;4.20;99.90
285;DHT22;127;48.770;9.212;2023-02-22T04:05:08;4.30;99.90
285;DHT22;127;48.770;9.212;2023-02-22T04:07:41;4.30;99.90
285;DHT22;127;48.770;9.212;2023-02-22T04:10:11;4.40;99.90
285;DHT22;127;48.770;9.212;2023-02-22T04:12:40;4.40;99.90
285;DHT22;127;48.770;9.212;2023-02-22T04:15:12;4.40;99.90
285;DHT22;127;48.770;9.212;2023-02-22T04:17:41;4.50;99.90
285;DHT22;127;48.770;9.212;2023-02-22T04:20:10;4.50;99.90
285;DHT22;127;48.770;9.212;2023-02-22T04:22:41;4.50;99.90
285;DHT22;127;48.770;9.212;2023-02-22T04:25:10;4.60;99.90
285;DHT22;127;48.770;9.212;2023-02-22T04:27:39;4.60;99.90
285;DHT22;127;48.770;9.212;2023-02-22T04:30:09;4.60;99.90
285;DHT22;127;48.770;9.212;2023-02-22T04:32:37;4.50;99.90
285;DHT22;127;48.770;9.212;2023-02-22T04:35:07;4.40;99.90
285;DHT22;127;48.770;9.212;2023-02-22T04:37:35;4.40;99.90
285;DHT22;127;48.770;9.212;2023-02-22T04:40:08;4.50;99.90
285;DHT22;127;48.770;9.212;2023-02-22T04:42:37;4.50;99.90
285;DHT22;127;48.770;9.212;2023-02-22T04:45:09;4.50;99.90
285;DHT22;127;48.770;9.212;2023-02-22T04:47:38;4.40;99.90
285;DHT22;127;48.770;9.212;2023-02-22T04:50:08;4.30;99.90
285;DHT22;127;48.770;9.212;2023-02-22T04:52:38;4.30;99.90
285;DHT22;127;48.770;9.212;2023-02-22T04:55:09;4.30;99.90
285;DHT22;127;48.770;9.212;2023-02-22T04:57:38;4.20;99.90
285;DHT22;127;48.770;9.212;2023-02-22T05:00:08;4.20;99.90
285;DHT22;127;48.770;9.212;2023-02-22T05:02:38;4.20;99.90
285;DHT22;127;48.770;9.212;2023-02-22T05:05:07;4.20;99.90
285;DHT22;127;48.770;9.212;2023-02-22T05:07:36;4.30;99.90
285;DHT22;127;48.770;9.212;2023-02-22T05:10:05;4.40;99.90
285;DHT22;127;48.770;9.212;2023-02-22T05:12:36;4.40;99.90
285;DHT22;127;48.770;9.212;2023-02-22T05:15:07;4.50;99.90
285;DHT22;127;48.770;9.212;2023-02-22T05:17:36;4.50;99.90
285;DHT22;127;48.770;9.212;2023-02-22T05:20:05;4.50;99.90
285;DHT22;127;48.770;9.212;2023-02-22T05:22:34;4.40;99.90
285;DHT22;127;48.770;9.212;2023-02-22T05:25:04;4.40;99.90
285;DHT22;127;48.770;9.212;2023-02-22T05:27:32;4.30;99.90
285;DHT22;127;48.770;9.212;2023-02-22T05:30:04;4.20;99.90
285;DHT22;127;48.770;9.212;2023-02-22T05:32:33;4.20;99.90
285;DHT22;127;48.770;9.212;2023-02-22T05:35:02;4.20;99.90
285;DHT22;127;48.770;9.212;2023-02-22T05:37:33;4.30;99.90
285;DHT22;127;48.770;9.212;2023-02-22T05:40:01;4.30;99.90
285;DHT22;127;48.770;9.212;2023-02-22T05:42:30;4.20;99.90
285;DHT22;127;48.770;9.212;2023-02-22T05:44:59;4.10;99.90
285;DHT22;127;48.770;9.212;2023-02-22T05:47:30;4.00;99.90
285;DHT22;127;48.770;9.212;2023-02-22T05:49:59;4.00;99.90
285;DHT22;127;48.770;9.212;2023-02-22T05:52:28;4.00;99.90
285;DHT22;127;48.770;9.212;2023-02-22T05:54:57;3.90;99.90
285;DHT22;127;48.770;9.212;2023-02-22T05:57:26;4.00;99.90
285;DHT22;127;48.770;9.212;2023-02-22T05:59:54;3.90;99.90
285;DHT22;127;48.770;9.212;2023-02-22T06:02:23;4.00;99.90
285;DHT22;127;48.770;9.212;2023-02-22T06:04:54;4.00;99.90
285;DHT22;127;48.770;9.212;2023-02-22T06:07:23;4.00;99.90
285;DHT22;127;48.770;9.212;2023-02-22T06:09:51;4.10;99.90
285;DHT22;127;48.770;9.212;2023-02-22T06:12:20;4.10;99.90
285;DHT22;127;48.770;9.212;2023-02-22T06:14:49;4.20;99.90
285;DHT22;127;48.770;9.212;2023-02-22T06:17:17;4.10;99.90
285;DHT22;127;48.770;9.212;2023-02-22T06:19:46;4.10;99.90
285;DHT22;127;48.770;9.212;2023-02-22T06:22:18;4.10;99.90
285;DHT22;127;48.770;9.212;2023-02-22T06:24:47;4.10;99.90
285;DHT22;127;48.770;9.212;2023-02-22T06:27:15;4.00;99.90
285;DHT22;127;48.770;9.212;2023-02-22T06:29:45;4.00;99.90
285;DHT22;127;48.770;9.212;2023-02-22T06:32:13;4.00;99.90
285;DHT22;127;48.770;9.212;2023-02-22T06:34:42;4.00;99.90
285;DHT22;127;48.770;9.212;2023-02-22T06:37:11;4.00;99.90
285;DHT22;127;48.770;9.212;2023-02-22T06:39:42;4.00;99.90
285;DHT22;127;48.770;9.212;2023-02-22T06:42:10;4.00;99.90
285;DHT22;127;48.770;9.212;2023-02-22T06:44:39;4.10;99.90
285;DHT22;127;48.770;9.212;2023-02-22T06:47:08;4.20;99.90
285;DHT22;127;48.770;9.212;2023-02-22T06:49:36;4.20;99.90
285;DHT22;127;48.770;9.212;2023-02-22T06:52:05;4.30;99.90
285;DHT22;127;48.770;9.212;2023-02-22T06:54:34;4.40;99.90
285;DHT22;127;48.770;9.212;2023-02-22T06:57:06;4.60;99.90
285;DHT22;127;48.770;9.212;2023-02-22T06:59:35;4.70;99.90
285;DHT22;127;48.770;9.212;2023-02-22T07:02:03;4.80;99.90
285;DHT22;127;48.770;9.212;2023-02-22T07:04:32;5.00;99.90
285;DHT22;127;48.770;9.212;2023-02-22T07:07:00;5.10;99.90
285;DHT22;127;48.770;9.212;2023-02-22T07:09:29;5.20;99.90
285;DHT22;127;48.770;9.212;2023-02-22T07:11:58;5.30;99.90
285;DHT22;127;48.770;9.212;2023-02-22T07:14:29;5.40;99.90
285;DHT22;127;48.770;9.212;2023-02-22T07:16:57;5.60;99.90
285;DHT22;127;48.770;9.212;2023-02-22T07:19:26;5.70;99.90
285;DHT22;127;48.770;9.212;2023-02-22T07:21:55;5.80;99.90
285;DHT22;127;48.770;9.212;2023-02-22T07:24:24;5.90;99.90
285;DHT22;127;48.770;9.212;2023-02-22T07:26:54;6.00;99.90
285;DHT22;127;48.770;9.212;2023-02-22T07:29:22;6.10;99.90
285;DHT22;127;48.770;9.212;2023-02-22T07:31:53;6.20;99.90
285;DHT22;127;48.770;9.212;2023-02-22T07:34:23;6.20;99.90
285;DHT22;127;48.770;9.212;2023-02-22T07:36:51;6.30;99.90
285;DHT22;127;48.770;9.212;2023-02-22T07:39:20;6.40;99.90
285;DHT22;127;48.770;9.212;2023-02-22T07:41:48;6.40;99.90
285;DHT22;127;48.770;9.212;2023-02-22T07:44:17;6.60;99.90
285;DHT22;127;48.770;9.212;2023-02-22T07:46:46;6.70;99.90
285;DHT22;127;48.770;9.212;2023-02-22T07:49:18;6.80;99.90
285;DHT22;127;48.770;9.212;2023-02-22T07:51:46;6.80;99.90
285;DHT22;127;48.770;9.212;2023-02-22T07:54:15;6.90;99.90
285;DHT22;127;48.770;9.212;2023-02-22T07:56:45;7.00;99.90
285;DHT22;127;48.770;9.212;2023-02-22T07:59:15;7.10;99.90
285;DHT22;127;48.770;9.212;2023-02-22T08:01:44;7.30;99.90
285;DHT22;127;48.770;9.212;2023-02-22T08:04:13;7.50;99.90
285;DHT22;127;48.770;9.212;2023-02-22T08:06:44;7.70;99.90
285;DHT22;127;48.770;9.212;2023-02-22T08:09:14;7.60;99.90
285;DHT22;127;48.770;9.212;2023-02-22T08:11:42;7.70;99.90
285;DHT22;127;48.770;9.212;2023-02-22T08:14:14;7.80;99.90
285;DHT22;127;48.770;9.212;2023-02-22T08:16:43;8.00;99.90
285;DHT22;127;48.770;9.212;2023-02-22T08:19:11;8.00;99.90
285;DHT22;127;48.770;9.212;2023-02-22T08:21:42;8.10;99.90
285;DHT22;127;48.770;9.212;2023-02-22T08:24:11;8.50;99.90
285;DHT22;127;48.770;9.212;2023-02-22T08:26:43;8.50;99.90
285;DHT22;127;48.770;9.212;2023-02-22T08:29:12;8.50;99.90
285;DHT22;127;48.770;9.212;2023-02-22T08:31:41;8.40;99.90
285;DHT22;127;48.770;9.212;2023-02-22T08:34:10;8.30;99.90
285;DHT22;127;48.770;9.212;2023-02-22T08:36:43;8.50;99.90
285;DHT22;127;48.770;9.212;2023-02-22T08:39:12;8.80;99.90
285;DHT22;127;48.770;9.212;2023-02-22T08:41:41;8.80;99.90
285;DHT22;127;48.770;9.212;2023-02-22T08:44:09;9.00;99.90
285;DHT22;127;48.770;9.212;2023-02-22T08:46:38;9.40;99.90
285;DHT22;127;48.770;9.212;2023-02-22T08:49:07;9.70;99.90
285;DHT22;127;48.770;9.212;2023-02-22T08:51:36;10.00;99.90
285;DHT22;127;48.770;9.212;2023-02-22T08:54:07;10.20;99.90
285;DHT22;127;48.770;9.212;2023-02-22T08:56:36;10.30;99.90
285;DHT22;127;48.770;9.212;2023-02-22T08:59:05;10.40;99.90
285;DHT22;127;48.770;9.212;2023-02-22T09:01:33;10.70;99.90
285;DHT22;127;48.770;9.212;2023-02-22T09:04:02;11.00;99.90
285;DHT22;127;48.770;9.212;2023-02-22T09:06:31;11.10;99.90
285;DHT22;127;48.770;9.212;2023-02-22T09:09:00;11.10;99.90
285;DHT22;127;48.770;9.212;2023-02-22T09:11:34;11.00;99.90
285;DHT22;127;48.770;9.212;2023-02-22T09:14:03;10.80;99.90
285;DHT22;127;48.770;9.212;2023-02-22T09:16:31;10.60;99.90
285;DHT22;127;48.770;9.212;2023-02-22T09:19:02;10.60;99.90
285;DHT22;127;48.770;9.212;2023-02-22T09:21:31;11.00;99.90
285;DHT22;127;48.770;9.212;2023-02-22T09:24:00;11.50;99.90
285;DHT22;127;48.770;9.212;2023-02-22T09:26:36;12.20;99.90
285;DHT22;127;48.770;9.212;2023-02-22T09:29:05;13.00;99.90
285;DHT22;127;48.770;9.212;2023-02-22T09:31:36;14.30;99.90
285;DHT22;127;48.770;9.212;2023-02-22T09:34:06;15.30;99.90
285;DHT22;127;48.770;9.212;2023-02-22T09:36:39;15.10;99.90
285;DHT22;127;48.770;9.212;2023-02-22T09:39:08;15.40;99.90
285;DHT22;127;48.770;9.212;2023-02-22T09:41:46;15.20;99.90
285;DHT22;127;48.770;9.212;2023-02-22T09:44:26;15.50;99.90
285;DHT22;127;48.770;9.212;2023-02-22T09:46:57;16.20;99.90
285;DHT22;127;48.770;9.212;2023-02-22T09:49:29;16.30;99.90
285;DHT22;127;48.770;9.212;2023-02-22T09:52:06;16.90;99.90
285;DHT22;127;48.770;9.212;2023-02-22T09:54:39;17.30;99.90
285;DHT22;127;48.770;9.212;2023-02-22T09:57:14;18.30;99.90
285;DHT22;127;48.770;9.212;2023-02-22T09:59:50;19.20;99.90
285;DHT22;127;48.770;9.212;2023-02-22T10:02:26;19.00;99.90
285;DHT22;127;48.770;9.212;2023-02-22T10:05:01;18.90;99.90
285;DHT22;127;48.770;9.212;2023-02-22T10:07:35;19.80;99.90
285;DHT22;127;48.770;9.212;2023-02-22T10:10:14;20.50;99.90
285;DHT22;127;48.770;9.212;2023-02-22T10:12:53;22.20;99.90
285;DHT22;127;48.770;9.212;2023-02-22T10:15:36;22.80;99.90
285;DHT22;127;48.770;9.212;2023-02-22T10:18:28;23.90;99.90
285;DHT22;127;48.770;9.212;2023-02-22T10:21:04;25.00;99.90
285;DHT22;127;48.770;9.212;2023-02-22T10:23:42;25.40;99.90
285;DHT22;127;48.770;9.212;2023-02-22T10:26:16;24.80;99.90
285;DHT22;127;48.770;9.212;2023-02-22T10:28:52;23.30;99.90
285;DHT22;127;48.770;9.212;2023-02-22T10:31:25;23.40;99.90
285;DHT22;127;48.770;9.212;2023-02-22T10:33:59;22.90;99.90
285;DHT22;127;48.770;9.212;2023-02-22T10:36:28;24.40;99.90
285;DHT22;127;48.770;9.212;2023-02-22T10:39:01;25.20;99.90
285;DHT22;127;48.770;9.212;2023-02-22T10:41:41;25.70;99.90
285;DHT22;127;48.770;9.212;2023-02-22T10:44:14;25.90;99.90
285;DHT22;127;48.770;9.212;2023-02-22T10:46:44;26.30;99.90
285;DHT22;127;48.770;9.212;2023-02-22T10:49:17;25.70;99.90
285;DHT22;127;48.770;9.212;2023-02-22T10:51:47;24.50;99.90
285;DHT22;127;48.770;9.212;2023-02-22T10:54:27;23.30;99.90
285;DHT22;127;48.770;9.212;2023-02-22T10:56:56;23.60;99.90
285;DHT22;127;48.770;9.212;2023-02-22T10:59:30;22.20;99.90
285;DHT22;127;48.770;9.212;2023-02-22T11:02:00;22.00;99.90
285;DHT22;127;48.770;9.212;2023-02-22T11:04:44;23.20;99.90
285;DHT22;127;48.770;9.212;2023-02-22T11:07:23;23.30;99.90
285;DHT22;127;48.770;9.212;2023-02-22T11:09:54;23.10;99.90
285;DHT22;127;48.770;9.212;2023-02-22T11:12:29;23.30;99.90
285;DHT22;127;48.770;9.212;2023-02-22T11:15:24;21.90;99.90
285;DHT22;127;48.770;9.212;2023-02-22T11:17:55;21.30;99.90
285;DHT22;127;48.770;9.212;2023-02-22T11:20:28;21.10;99.90
285;DHT22;127;48.770;9.212;2023-02-22T11:23:01;21.50;99.90
285;DHT22;127;48.770;9.212;2023-02-22T11:25:33;21.40;99.90
285;DHT22;127;48.770;9.212;2023-02-22T11:28:08;21.20;99.90
285;DHT22;127;48.770;9.212;2023-02-22T11:30:42;21.10;99.90
285;DHT22;127;48.770;9.212;2023-02-22T11:33:18;20.70;99.90
285;DHT22;127;48.770;9.212;2023-02-22T11:35:50;20.70;99.90
285;DHT22;127;48.770;9.212;2023-02-22T11:38:21;20.80;99.90
285;DHT22;127;48.770;9.212;2023-02-22T11:41:09;20.80;99.90
285;DHT22;127;48.770;9.212;2023-02-22T11:43:39;21.30;99.90
285;DHT22;127;48.770;9.212;2023-02-22T11:46:13;21.60;99.90
285;DHT22;127;48.770;9.212;2023-02-22T11:48:52;22.10;99.90
285;DHT22;127;48.770;9.212;2023-02-22T11:51:37;22.30;99.90
285;DHT22;127;48.770;9.212;2023-02-22T11:54:22;22.30;99.90
285;DHT22;127;48.770;9.212;2023-02-22T11:57:06;21.10;99.90
285;DHT22;127;48.770;9.212;2023-02-22T11:59:50;21.50;99.90
285;DHT22;127;48.770;9.212;2023-02-22T12:02:35;21.60;99.90
285;DHT22;127;48.770;9.212;2023-02-22T12:05:19;21.10;99.90
285;DHT22;127;48.770;9.212;2023-02-22T12:08:04;19.90;99.90
285;DHT22;127;48.770;9.212;2023-02-22T12:10:44;19.80;99.90
285;DHT22;127;48.770;9.212;2023-02-22T12:13:31;19.50;99.90
285;DHT22;127;48.770;9.212;2023-02-22T12:16:12;21.00;99.90
285;DHT22;127;48.770;9.212;2023-02-22T12:19:08;22.40;99.90
285;DHT22;127;48.770;9.212;2023-02-22T12:21:42;23.20;99.90
285;DHT22;127;48.770;9.212;2023-02-22T12:24:16;24.10;99.90
285;DHT22;127;48.770;9.212;2023-02-22T12:26:49;24.20;99.90
285;DHT22;127;48.770;9.212;2023-02-22T12:29:25;23.20;99.90
285;DHT22;127;48.770;9.212;2023-02-22T12:31:59;22.10;99.90
285;DHT22;127;48.770;9.212;2023-02-22T12:34:36;21.50;99.90
285;DHT22;127;48.770;9.212;2023-02-22T12:37:13;21.20;99.90
285;DHT22;127;48.770;9.212;2023-02-22T12:39:53;20.90;99.90
285;DHT22;127;48.770;9.212;2023-02-22T12:42:29;20.40;99.90
285;DHT22;127;48.770;9.212;2023-02-22T12:54:44;19.40;99.90
285;DHT22;127;48.770;9.212;2023-02-22T12:57:20;19.80;99.90
285;DHT22;127;48.770;9.212;2023-02-22T12:59:56;20.60;99.90
285;DHT22;127;48.770;9.212;2023-02-22T13:02:34;21.00;99.90
285;DHT22;127;48.770;9.212;2023-02-22T13:05:05;20.60;99.90
285;DHT22;127;48.770;9.212;2023-02-22T13:07:41;20.40;99.90
285;DHT22;127;48.770;9.212;2023-02-22T13:10:25;20.40;99.90
285;DHT22;127;48.770;9.212;2023-02-22T13:13:03;20.00;99.90
285;DHT22;127;48.770;9.212;2023-02-22T13:15:40;19.90;99.90
285;DHT22;127;48.770;9.212;2023-02-22T13:18:16;20.20;99.90
285;DHT22;127;48.770;9.212;2023-02-22T13:20:48;20.70;99.90
285;DHT22;127;48.770;9.212;2023-02-22T13:23:31;20.90;99.90
285;DHT22;127;48.770;9.212;2023-02-22T13:26:12;20.40;99.90
285;DHT22;127;48.770;9.212;2023-02-22T13:28:45;21.10;99.90
285;DHT22;127;48.770;9.212;2023-02-22T13:31:37;22.60;99.90
285;DHT22;127;48.770;9.212;2023-02-22T13:34:22;23.40;99.90
285;DHT22;127;48.770;9.212;2023-02-22T13:37:07;22.60;99.90
285;DHT22;127;48.770;9.212;2023-02-22T13:40:11;23.70;99.90
285;DHT22;127;48.770;9.212;2023-02-22T13:43:13;24.50;99.90
285;DHT22;127;48.770;9.212;2023-02-22T13:45:58;22.60;99.90
285;DHT22;127;48.770;9.212;2023-02-22T13:48:54;23.70;99.90
285;DHT22;127;48.770;9.212;2023-02-22T13:51:45;24.20;99.90
285;DHT22;127;48.770;9.212;2023-02-22T13:54:21;24.50;99.90
285;DHT22;127;48.770;9.212;2023-02-22T13:56:53;24.60;99.90
285;DHT22;127;48.770;9.212;2023-02-22T13:59:28;23.40;99.90
285;DHT22;127;48.770;9.212;2023-02-22T14:01:58;22.70;99.90
285;DHT22;127;48.770;9.212;2023-02-22T14:04:35;22.50;99.90
285;DHT22;127;48.770;9.212;2023-02-22T14:10:45;20.70;99.90
285;DHT22;127;48.770;9.212;2023-02-22T14:13:15;20.10;99.90
285;DHT22;127;48.770;9.212;2023-02-22T14:19:01;19.10;99.90
285;DHT22;127;48.770;9.212;2023-02-22T14:21:32;19.10;99.90
285;DHT22;127;48.770;9.212;2023-02-22T14:24:10;19.10;99.90
285;DHT22;127;48.770;9.212;2023-02-22T14:26:43;18.60;99.90
285;DHT22;127;48.770;9.212;2023-02-22T14:29:21;18.30;99.90
285;DHT22;127;48.770;9.212;2023-02-22T14:32:04;17.80;99.90
285;DHT22;127;48.770;9.212;2023-02-22T14:34:44;17.80;99.90
285;DHT22;127;48.770;9.212;2023-02-22T14:37:17;17.50;99.90
285;DHT22;127;48.770;9.212;2023-02-22T14:39:51;17.40;99.90
285;DHT22;127;48.770;9.212;2023-02-22T14:42:27;17.20;99.90
285;DHT22;127;48.770;9.212;2023-02-22T14:44:59;17.20;99.90
285;DHT22;127;48.770;9.212;2023-02-22T14:47:36;16.70;99.90
285;DHT22;127;48.770;9.212;2023-02-22T14:50:15;16.80;99.90
285;DHT22;127;48.770;9.212;2023-02-22T14:52:56;16.80;99.90
285;DHT22;127;48.770;9.212;2023-02-22T14:55:30;16.80;99.90
285;DHT22;127;48.770;9.212;2023-02-22T14:58:03;16.80;99.90
285;DHT22;127;48.770;9.212;2023-02-22T15:00:38;16.70;99.90
285;DHT22;127;48.770;9.212;2023-02-22T15:03:17;16.70;99.90
285;DHT22;127;48.770;9.212;2023-02-22T15:05:48;16.70;99.90
285;DHT22;127;48.770;9.212;2023-02-22T15:08:18;16.60;99.90
285;DHT22;127;48.770;9.212;2023-02-22T15:10:53;16.50;99.90
285;DHT22;127;48.770;9.212;2023-02-22T15:13:23;16.40;99.90
285;DHT22;127;48.770;9.212;2023-02-22T15:15:56;16.50;99.90
285;DHT22;127;48.770;9.212;2023-02-22T15:18:26;16.30;99.90
285;DHT22;127;48.770;9.212;2023-02-22T15:21:03;16.30;99.90
285;DHT22;127;48.770;9.212;2023-02-22T15:23:40;16.00;99.90
285;DHT22;127;48.770;9.212;2023-02-22T15:26:18;16.00;99.90
285;DHT22;127;48.770;9.212;2023-02-22T15:28:52;15.90;99.90
285;DHT22;127;48.770;9.212;2023-02-22T15:31:30;15.90;99.90
285;DHT22;127;48.770;9.212;2023-02-22T15:34:13;15.80;99.90
285;DHT22;127;48.770;9.212;2023-02-22T15:36:50;15.50;99.90
285;DHT22;127;48.770;9.212;2023-02-22T15:39:22;15.10;99.90
285;DHT22;127;48.770;9.212;2023-02-22T15:42:01;15.10;99.90
285;DHT22;127;48.770;9.212;2023-02-22T15:44:34;15.00;99.90
285;DHT22;127;48.770;9.212;2023-02-22T15:47:03;15.00;99.90
285;DHT22;127;48.770;9.212;2023-02-22T15:49:32;14.70;99.90
285;DHT22;127;48.770;9.212;2023-02-22T15:52:16;14.50;99.90
285;DHT22;127;48.770;9.212;2023-02-22T15:54:48;14.40;99.90
285;DHT22;127;48.770;9.212;2023-02-22T15:57:20;14.40;99.90
285;DHT22;127;48.770;9.212;2023-02-22T15:59:52;14.40;99.90
285;DHT22;127;48.770;9.212;2023-02-22T16:02:33;14.40;99.90
285;DHT22;127;48.770;9.212;2023-02-22T16:05:07;14.10;99.90
285;DHT22;127;48.770;9.212;2023-02-22T16:07:41;14.00;99.90
285;DHT22;127;48.770;9.212;2023-02-22T16:10:23;13.90;99.90
285;DHT22;127;48.770;9.212;2023-02-22T16:13:07;13.80;99.90
285;DHT22;127;48.770;9.212;2023-02-22T16:15:36;13.60;99.90
285;DHT22;127;48.770;9.212;2023-02-22T16:18:25;13.50;99.90
285;DHT22;127;48.770;9.212;2023-02-22T16:21:03;13.60;99.90
285;DHT22;127;48.770;9.212;2023-02-22T16:23:43;13.60;99.90
285;DHT22;127;48.770;9.212;2023-02-22T16:26:23;13.40;99.90
285;DHT22;127;48.770;9.212;2023-02-22T16:28:54;13.50;99.90
285;DHT22;127;48.770;9.212;2023-02-22T16:31:24;13.50;99.90
285;DHT22;127;48.770;9.212;2023-02-22T16:33:53;13.40;99.90
285;DHT22;127;48.770;9.212;2023-02-22T16:36:34;13.20;99.90
285;DHT22;127;48.770;9.212;2023-02-22T16:39:07;13.00;99.90
285;DHT22;127;48.770;9.212;2023-02-22T16:41:39;12.90;99.90
285;DHT22;127;48.770;9.212;2023-02-22T16:44:07;12.90;99.90
285;DHT22;127;48.770;9.212;2023-02-22T16:46:37;12.90;99.90
285;DHT22;127;48.770;9.212;2023-02-22T16:49:07;12.80;99.90
285;DHT22;127;48.770;9.212;2023-02-22T16:51:40;12.70;99.90
285;DHT22;127;48.770;9.212;2023-02-22T16:54:17;12.70;99.90
285;DHT22;127;48.770;9.212;2023-02-22T16:56:46;12.60;99.90
285;DHT22;127;48.770;9.212;2023-02-22T16:59:16;12.60;99.90
285;DHT22;127;48.770;9.212;2023-02-22T17:01:44;12.50;99.90
285;DHT22;127;48.770;9.212;2023-02-22T17:04:15;12.50;99.90
285;DHT22;127;48.770;9.212;2023-02-22T17:06:44;12.40;99.90
285;DHT22;127;48.770;9.212;2023-02-22T17:09:15;12.30;99.90
285;DHT22;127;48.770;9.212;2023-02-22T17:11:45;12.20;99.90
285;DHT22;127;48.770;9.212;2023-02-22T17:14:17;12.20;99.90
285;DHT22;127;48.770;9.212;2023-02-22T17:16:47;12.10;99.90
285;DHT22;127;48.770;9.212;2023-02-22T17:19:17;12.10;99.90
285;DHT22;127;48.770;9.212;2023-02-22T17:21:46;12.10;99.90
285;DHT22;127;48.770;9.212;2023-02-22T17:24:20;11.90;99.90
285;DHT22;127;48.770;9.212;2023-02-22T17:26:53;11.80;99.90
285;DHT22;127;48.770;9.212;2023-02-22T17:29:23;11.80;99.90
285;DHT22;127;48.770;9.212;2023-02-22T17:31:52;11.70;99.90
285;DHT22;127;48.770;9.212;2023-02-22T17:34:21;11.60;99.90
285;DHT22;127;48.770;9.212;2023-02-22T17:36:50;11.50;99.90
285;DHT22;127;48.770;9.212;2023-02-22T17:39:21;11.40;99.90
285;DHT22;127;48.770;9.212;2023-02-22T17:41:52;11.40;99.90
285;DHT22;127;48.770;9.212;2023-02-22T17:44:22;11.30;99.90
285;DHT22;127;48.770;9.212;2023-02-22T17:46:51;11.20;99.90
285;DHT22;127;48.770;9.212;2023-02-22T17:49:20;11.20;99.90